createdAt,value
2023-03-01T00:03:29.457Z,1011.91
2023-03-01T00:08:29.217Z,1011.91
2023-03-01T00:13:29.170Z,1012.09
2023-03-01T00:18:29.210Z,1012.02
2023-03-01T00:23:29.112Z,1011.96
2023-03-01T00:28:28.831Z,1011.91
2023-03-01T00:33:28.777Z,1011.84
2023-03-01T00:38:31.871Z,1011.91
2023-03-01T00:43:28.670Z,1011.83
2023-03-01T00:48:28.656Z,1011.80
2023-03-01T00:53:28.654Z,1011.70
2023-03-01T00:58:28.595Z,1011.83
2023-03-01T01:03:28.441Z,1011.75
2023-03-01T01:08:29.630Z,1011.69
2023-03-01T01:13:28.320Z,1011.68
2023-03-01T01:18:28.274Z,1011.69
2023-03-01T01:23:28.230Z,1011.59
2023-03-01T01:28:28.242Z,1011.52
2023-03-01T01:33:28.399Z,1011.49
2023-03-01T01:38:31.129Z,1011.42
2023-03-01T01:43:27.927Z,1011.36
2023-03-01T01:48:28.013Z,1011.22
2023-03-01T01:53:27.797Z,1011.16
2023-03-01T01:58:27.771Z,1011.02
2023-03-01T02:03:27.890Z,1010.95
2023-03-01T02:08:27.692Z,1010.98
2023-03-01T02:13:27.559Z,1011.02
2023-03-01T02:18:28.414Z,1010.95
2023-03-01T02:23:27.538Z,1010.91
2023-03-01T02:28:27.402Z,1010.87
2023-03-01T02:33:27.311Z,1010.91
2023-03-01T02:38:30.523Z,1010.95
2023-03-01T02:43:27.395Z,1010.81
2023-03-01T02:48:27.403Z,1010.79
2023-03-01T02:53:27.133Z,1010.88
2023-03-01T02:58:27.397Z,1010.88
2023-03-01T03:03:27.178Z,1010.93
2023-03-01T03:08:27.279Z,1010.89
2023-03-01T03:13:27.003Z,1010.99
2023-03-01T03:18:27.120Z,1010.90
2023-03-01T03:23:26.898Z,1011.01
2023-03-01T03:28:26.878Z,1010.92
2023-03-01T03:33:26.806Z,1010.89
2023-03-01T03:38:29.912Z,1010.90
2023-03-01T03:43:26.652Z,1010.79
2023-03-01T03:48:26.424Z,1010.77
2023-03-01T03:53:26.467Z,1010.69
2023-03-01T03:58:26.468Z,1010.68
2023-03-01T04:03:26.615Z,1010.62
2023-03-01T04:08:26.513Z,1010.57
2023-03-01T04:14:51.160Z,1010.64
2023-03-01T04:19:51.047Z,1010.66
2023-03-01T04:24:50.932Z,1010.57
2023-03-01T04:29:50.898Z,1010.54
2023-03-01T04:34:51.089Z,1010.52
2023-03-01T04:39:50.818Z,1010.60
2023-03-01T04:44:50.714Z,1010.52
2023-03-01T04:49:50.804Z,1010.51
2023-03-01T04:54:50.523Z,1010.54
2023-03-01T04:59:50.559Z,1010.42
2023-03-01T05:04:53.512Z,1010.47
2023-03-01T05:09:50.504Z,1010.55
2023-03-01T05:14:50.440Z,1010.36
2023-03-01T05:19:50.285Z,1010.41
2023-03-01T05:24:50.256Z,1010.54
2023-03-01T05:29:50.090Z,1010.43
2023-03-01T05:34:50.289Z,1010.43
2023-03-01T05:39:51.024Z,1010.44
2023-03-01T05:44:50.199Z,1010.44
2023-03-01T05:49:49.818Z,1010.43
2023-03-01T05:54:49.808Z,1010.44
2023-03-01T05:59:58.054Z,1010.50
2023-03-01T06:09:06.332Z,1010.60
2023-03-01T06:14:06.263Z,1010.61
2023-03-01T06:19:06.422Z,1010.57
2023-03-01T06:24:06.189Z,1010.52
2023-03-01T06:29:06.053Z,1010.48
2023-03-01T06:34:06.097Z,1010.55
2023-03-01T06:39:05.923Z,1010.36
2023-03-01T06:44:05.891Z,1010.29
2023-03-01T06:49:13.455Z,1010.21
2023-03-01T06:54:05.834Z,1010.19
2023-03-01T06:59:08.935Z,1010.11
2023-03-01T07:04:05.828Z,1010.01
2023-03-01T07:09:05.533Z,1010.00
2023-03-01T07:14:05.593Z,1009.92
2023-03-01T07:19:05.482Z,1009.94
2023-03-01T07:24:05.410Z,1009.83
2023-03-01T07:29:05.310Z,1009.79
2023-03-01T07:34:05.228Z,1009.79
2023-03-01T07:39:05.145Z,1009.84
2023-03-01T07:44:05.194Z,1009.89
2023-03-01T07:49:05.342Z,1009.93
2023-03-01T07:54:04.922Z,1009.90
2023-03-01T07:59:08.152Z,1009.94
2023-03-01T08:04:04.894Z,1009.96
2023-03-01T08:09:04.761Z,1009.96
2023-03-01T08:14:04.702Z,1009.88
2023-03-01T08:19:04.621Z,1009.90
2023-03-01T08:24:04.520Z,1009.81
2023-03-01T08:29:05.613Z,1009.81
2023-03-01T08:34:04.704Z,1009.84
2023-03-01T08:39:04.545Z,1009.80
2023-03-01T08:44:04.311Z,1009.77
2023-03-01T08:49:04.241Z,1009.67
2023-03-01T08:54:04.269Z,1009.66
2023-03-01T08:59:07.179Z,1009.62
2023-03-01T09:04:04.083Z,1009.55
2023-03-01T09:09:04.114Z,1009.36
2023-03-01T09:14:03.891Z,1009.34
2023-03-01T09:19:03.884Z,1009.32
2023-03-01T09:24:03.863Z,1009.30
2023-03-01T09:29:03.991Z,1009.28
2023-03-01T09:34:03.774Z,1009.27
2023-03-01T09:39:03.735Z,1009.27
2023-03-01T09:44:03.511Z,1009.14
2023-03-01T09:49:03.694Z,1009.14
2023-03-01T09:54:03.522Z,1009.21
2023-03-01T09:59:06.529Z,1009.15
2023-03-01T10:04:03.324Z,1009.15
2023-03-01T10:09:03.416Z,1009.08
2023-03-01T10:14:03.125Z,1009.10
2023-03-01T10:19:03.208Z,1009.11
2023-03-01T10:24:02.997Z,1009.03
2023-03-01T10:29:02.990Z,1008.94
2023-03-01T10:34:03.168Z,1008.88
2023-03-01T10:39:02.932Z,1008.80
2023-03-01T10:44:02.978Z,1008.71
2023-03-01T10:49:02.748Z,1008.70
2023-03-01T10:54:02.623Z,1008.67
2023-03-01T10:59:05.754Z,1008.69
2023-03-01T11:04:02.575Z,1008.52
2023-03-01T11:09:02.523Z,1008.53
2023-03-01T11:14:03.087Z,1008.47
2023-03-01T11:19:02.405Z,1008.53
2023-03-01T11:24:02.339Z,1008.51
2023-03-01T11:29:02.392Z,1008.48
2023-03-01T11:34:02.173Z,1008.49
2023-03-01T11:39:02.171Z,1008.48
2023-03-01T11:44:02.210Z,1008.50
2023-03-01T11:49:01.993Z,1008.39
2023-03-01T11:54:01.895Z,1008.19
2023-03-01T11:59:04.853Z,1008.20
2023-03-01T12:04:01.830Z,1008.14
2023-03-01T12:09:01.733Z,1008.14
2023-03-01T12:14:01.583Z,1008.06
2023-03-01T12:19:01.577Z,1007.98
2023-03-01T12:24:01.479Z,1008.00
2023-03-01T12:29:08.793Z,1007.77
2023-03-01T12:34:08.789Z,1007.80
2023-03-01T12:39:01.313Z,1007.72
2023-03-01T12:44:01.208Z,1007.72
2023-03-01T12:49:01.195Z,1007.76
2023-03-01T12:54:01.131Z,1007.72
2023-03-01T12:59:04.170Z,1007.58
2023-03-01T13:04:00.978Z,1007.56
2023-03-01T13:09:01.128Z,1007.48
2023-03-01T13:14:00.848Z,1007.51
2023-03-01T13:19:00.811Z,1007.52
2023-03-01T13:24:00.730Z,1007.51
2023-03-01T13:29:00.712Z,1007.37
2023-03-01T13:34:00.628Z,1007.36
2023-03-01T13:39:00.897Z,1007.30
2023-03-01T13:44:00.497Z,1007.21
2023-03-01T13:49:00.510Z,1007.08
2023-03-01T13:54:00.482Z,1007.14
2023-03-01T13:59:03.287Z,1007.06
2023-03-01T14:04:00.436Z,1007.03
2023-03-01T14:09:00.205Z,1007.06
2023-03-01T14:14:00.130Z,1007.02
2023-03-01T14:19:00.266Z,1006.95
2023-03-01T14:24:00.073Z,1006.90
2023-03-01T14:28:59.954Z,1006.81
2023-03-01T14:33:59.826Z,1006.77
2023-03-01T14:38:59.883Z,1006.81
2023-03-01T14:43:59.693Z,1006.68
2023-03-01T14:49:01.198Z,1006.69
2023-03-01T14:53:59.536Z,1006.70
2023-03-01T14:59:02.491Z,1006.65
2023-03-01T15:03:59.428Z,1006.67
2023-03-01T15:08:59.378Z,1006.60
2023-03-01T15:13:59.290Z,1006.58
2023-03-01T15:18:59.345Z,1006.49
2023-03-01T15:23:59.255Z,1006.54
2023-03-01T15:28:59.134Z,1006.56
2023-03-01T15:33:59.131Z,1006.57
2023-03-01T15:38:59.004Z,1006.49
2023-03-01T15:43:58.882Z,1006.57
2023-03-01T15:48:58.941Z,1006.59
2023-03-01T15:53:58.970Z,1006.57
2023-03-01T15:59:02.242Z,1006.57
2023-03-01T16:03:58.670Z,1006.70
2023-03-01T16:08:58.750Z,1006.64
2023-03-01T16:13:58.556Z,1006.64
2023-03-01T16:18:58.454Z,1006.67
2023-03-01T16:23:58.375Z,1006.73
2023-03-01T16:28:58.326Z,1006.58
2023-03-01T16:33:58.224Z,1006.65
2023-03-01T16:38:58.246Z,1006.67
2023-03-01T16:43:58.116Z,1006.70
2023-03-01T16:48:58.267Z,1006.74
2023-03-01T16:53:57.998Z,1006.80
2023-03-01T16:59:03.265Z,1006.81
2023-03-01T17:03:57.886Z,1006.82
2023-03-01T17:08:59.414Z,1006.87
2023-03-01T17:13:57.843Z,1006.88
2023-03-01T17:18:57.883Z,1006.85
2023-03-01T17:23:57.750Z,1006.92
2023-03-01T17:28:57.627Z,1006.96
2023-03-01T17:33:59.306Z,1006.94
2023-03-01T17:38:57.459Z,1006.97
2023-03-01T17:43:57.441Z,1007.06
2023-03-01T17:48:57.465Z,1007.23
2023-03-01T17:53:57.250Z,1007.08
2023-03-01T17:59:00.247Z,1007.16
2023-03-01T18:03:57.124Z,1007.15
2023-03-01T18:08:57.078Z,1007.19
2023-03-01T18:13:57.095Z,1007.20
2023-03-01T18:18:56.983Z,1007.23
2023-03-01T18:23:56.870Z,1007.08
2023-03-01T18:28:56.918Z,1007.09
2023-03-01T18:33:56.730Z,1007.02
2023-03-01T18:38:56.776Z,1006.95
2023-03-01T18:44:04.258Z,1006.97
2023-03-01T18:49:03.835Z,1007.03
2023-03-01T18:54:03.795Z,1007.09
2023-03-01T18:58:59.544Z,1007.07
2023-03-01T19:03:56.404Z,1007.06
2023-03-01T19:08:56.422Z,1007.09
2023-03-01T19:13:56.241Z,1007.08
2023-03-01T19:18:56.271Z,1007.06
2023-03-01T19:23:56.192Z,1007.04
2023-03-01T19:28:56.024Z,1007.02
2023-03-01T19:34:05.420Z,1006.97
2023-03-01T19:38:56.924Z,1006.98
2023-03-01T19:43:55.909Z,1006.99
2023-03-01T19:48:55.807Z,1006.97
2023-03-01T19:53:55.929Z,1006.97
2023-03-01T19:58:58.666Z,1006.98
2023-03-01T20:03:55.746Z,1007.05
2023-03-01T20:08:55.735Z,1007.03
2023-03-01T20:13:55.460Z,1006.96
2023-03-01T20:18:55.562Z,1006.98
2023-03-01T20:23:55.381Z,1006.97
2023-03-01T20:28:55.461Z,1006.90
2023-03-01T20:33:55.214Z,1006.95
2023-03-01T20:38:55.202Z,1006.97
2023-03-01T20:43:55.277Z,1007.01
2023-03-01T20:48:55.279Z,1007.01
2023-03-01T20:53:55.092Z,1007.00
2023-03-01T20:58:58.217Z,1007.01
2023-03-01T21:03:54.934Z,1007.01
2023-03-01T21:08:54.830Z,1007.06
2023-03-01T21:13:54.750Z,1006.96
2023-03-01T21:18:54.713Z,1006.95
2023-03-01T21:23:54.735Z,1007.05
2023-03-01T21:28:54.789Z,1007.03
2023-03-01T21:33:54.496Z,1007.03
2023-03-01T21:38:54.512Z,1007.03
2023-03-01T21:43:54.474Z,1006.99
2023-03-01T21:48:54.456Z,1006.97
2023-03-01T21:53:54.230Z,1006.93
2023-03-01T21:58:57.234Z,1006.97
2023-03-01T22:03:54.205Z,1006.84
2023-03-01T22:08:54.065Z,1006.86
2023-03-01T22:13:54.075Z,1006.79
2023-03-01T22:18:54.002Z,1006.78
2023-03-01T22:23:53.882Z,1006.70
2023-03-01T22:28:53.834Z,1006.62
2023-03-01T22:33:53.721Z,1006.61
2023-03-01T22:38:54.612Z,1006.57
2023-03-01T22:43:53.621Z,1006.61
2023-03-01T22:48:53.690Z,1006.61
2023-03-01T22:53:53.577Z,1006.62
2023-03-01T22:58:56.566Z,1006.50
2023-03-01T23:03:53.349Z,1006.48
2023-03-01T23:08:53.366Z,1006.52
2023-03-01T23:13:53.367Z,1006.41
2023-03-01T23:18:53.266Z,1006.36
2023-03-01T23:23:53.261Z,1006.33
2023-03-01T23:28:53.147Z,1006.40
2023-03-01T23:33:53.050Z,1006.41
2023-03-01T23:38:53.080Z,1006.34
2023-03-01T23:43:52.818Z,1006.43
2023-03-01T23:48:53.084Z,1006.37
2023-03-01T23:53:52.853Z,1006.33
2023-03-01T23:58:55.720Z,1006.29
